Terminal Aerodrome Forecast
Issued by NWS

Home | Current Version | Previous Version | Graphics & Text | Print | Product List | Glossary On
Versions: 1 2 3 4 5 6 7 8 9 10 11 12
000
FTUS45 KVEF 242300
TAFDAG
TAF
KDAG 242333Z 2500/2524 09007KT P6SM FEW250
     FM250100 26012KT P6SM SCT250
     FM251800 06007KT P6SM SCT120 BKN150=

USA.gov is the U.S. government's official web portal to all federal, state and local government web resources and services.